Time;durP1;ratioP1;P1;durP2;ratioP2;P2;SDS_P1;SDS_P2;PMS_P1;PMS_P2;Temp;Humidity;BMP_temperature;BMP_pressure;BME280_temperature;BME280_humidity;BME280_pressure;Samples;Min_cycle;Max_cycle;Signal;HPM_P1;HPM_P2
2022/03/27 00:00:46;;;;;;;;;48.00;38.33;;;;;10.23;44.34;100358.19;6314316;20;2850304;-51
2022/03/27 00:03:15;;;;;;;;;50.00;36.67;;;;;10.20;44.49;100357.50;6318191;20;3606493;-57
2022/03/27 00:05:44;;;;;;;;;41.00;37.00;;;;;10.14;44.79;100353.31;6281853;20;2862908;-57
2022/03/27 00:08:13;;;;;;;;;42.50;39.00;;;;;10.08;45.67;100353.56;6284692;20;2862824;-57
2022/03/27 00:13:31;;;;;;;;;53.33;40.00;;;;;10.15;45.89;100354.16;6310238;20;2872218;-56
2022/03/27 00:16:00;;;;;;;;;43.00;36.00;;;;;10.33;45.74;100364.03;6311655;20;3597577;-55
2022/03/27 00:18:30;;;;;;;;;49.33;33.00;;;;;10.31;46.31;100355.16;6313444;20;3644048;-56
2022/03/27 00:20:59;;;;;;;;;45.33;35.67;;;;;10.08;46.57;100356.25;6311189;20;3624175;-58
2022/03/27 00:23:29;;;;;;;;;50.00;37.00;;;;;10.25;46.70;100367.06;6313422;20;3615865;-58
2022/03/27 00:25:59;;;;;;;;;47.00;35.00;;;;;10.28;46.63;100368.75;6310805;20;3604406;-51
2022/03/27 00:28:32;;;;;;;;;39.33;34.33;;;;;10.18;47.23;100368.28;6316587;20;3611706;-51
2022/03/27 00:31:05;;;;;;;;;44.33;35.33;;;;;10.11;47.37;100364.19;6283481;20;2866069;-51
2022/03/27 00:33:37;;;;;;;;;39.67;32.00;;;;;10.19;47.15;100372.72;6310852;20;3611736;-53
2022/03/27 00:36:09;;;;;;;;;39.67;31.00;;;;;10.16;47.59;100370.16;6315654;20;3625258;-51
2022/03/27 00:38:44;;;;;;;;;44.00;33.67;;;;;10.17;47.76;100373.75;6282096;20;3626291;-50
2022/03/27 00:41:14;;;;;;;;;41.67;34.33;;;;;10.30;47.52;100365.03;6313422;20;3621099;-48
2022/03/27 00:43:44;;;;;;;;;48.00;37.33;;;;;10.57;47.12;100369.97;6311933;20;2863867;-51
2022/03/27 00:46:13;;;;;;;;;53.00;41.33;;;;;10.70;47.25;100365.72;6311217;20;3616026;-49
2022/03/27 00:48:43;;;;;;;;;52.67;38.00;;;;;10.61;47.53;100355.47;6310879;20;3611700;-53
2022/03/27 00:51:13;;;;;;;;;65.33;46.67;;;;;10.76;47.07;100362.69;6314419;20;3647126;-48
2022/03/27 00:53:42;;;;;;;;;53.33;43.00;;;;;10.80;47.09;100363.44;6313343;20;2858636;-50
2022/03/27 00:56:12;;;;;;;;;54.67;41.00;;;;;10.92;46.76;100361.91;6314031;20;3612754;-49
2022/03/27 00:58:41;;;;;;;;;44.33;33.33;;;;;10.90;47.13;100364.69;6318003;20;3616878;-50
2022/03/27 01:01:35;;;;;;;;;45.00;36.00;;;;;10.83;47.23;100365.09;6280805;20;2852323;-50
2022/03/27 01:04:08;;;;;;;;;38.67;32.00;;;;;10.91;47.28;100368.25;6280122;20;3616029;-49
2022/03/27 01:06:43;;;;;;;;;47.67;36.33;;;;;11.06;47.27;100367.44;6315182;20;3611678;-49
2022/03/27 01:09:38;;;;;;;;;45.33;33.33;;;;;11.04;47.41;100372.03;6279767;20;3638827;-47
2022/03/27 01:12:21;;;;;;;;;38.67;34.00;;;;;11.17;46.96;100361.50;6313486;20;3615980;-50
2022/03/27 01:14:53;;;;;;;;;41.67;34.33;;;;;11.33;46.63;100367.78;6314432;20;2868146;-48
2022/03/27 01:17:26;;;;;;;;;35.33;29.00;;;;;11.34;46.68;100371.34;6312564;20;3614849;-48
2022/03/27 01:19:57;;;;;;;;;44.33;31.67;;;;;11.52;46.44;100372.19;6278335;20;3634600;-50
2022/03/27 01:22:27;;;;;;;;;30.67;29.00;;;;;11.70;46.11;100373.84;6312321;20;2855595;-49
2022/03/27 01:24:57;;;;;;;;;37.00;28.33;;;;;11.84;45.77;100383.84;6312128;20;3614795;-47
2022/03/27 01:27:26;;;;;;;;;33.00;25.50;;;;;11.72;46.45;100384.53;6313774;20;2844021;-49
2022/03/27 01:29:56;;;;;;;;;36.67;29.33;;;;;11.87;45.95;100383.69;6278164;20;2863916;-48
2022/03/27 01:32:25;;;;;;;;;35.67;32.33;;;;;11.83;45.97;100395.56;6313630;20;3603502;-48
2022/03/27 01:34:56;;;;;;;;;40.67;33.67;;;;;11.71;46.37;100390.84;6311981;20;2861846;-47
2022/03/27 01:37:26;;;;;;;;;31.67;28.33;;;;;11.63;46.59;100397.53;6308397;20;2860862;-51
2022/03/27 01:39:54;;;;;;;;;45.00;34.00;;;;;11.48;47.11;100403.75;6314410;20;3621111;-53
2022/03/27 01:42:24;;;;;;;;;38.67;33.33;;;;;11.36;47.54;100397.19;6280002;20;3611804;-51
2022/03/27 01:44:54;;;;;;;;;40.50;32.00;;;;;11.32;47.19;100408.19;6313859;20;3616997;-51
2022/03/27 01:47:23;;;;;;;;;46.33;34.67;;;;;11.46;46.68;100412.84;6313311;20;3630467;-53
2022/03/27 01:49:53;;;;;;;;;45.33;35.00;;;;;11.37;47.09;100411.50;6309222;20;3643094;-49
2022/03/27 01:52:22;;;;;;;;;37.67;31.00;;;;;11.32;47.26;100414.47;6314060;20;3603361;-49
2022/03/27 01:54:52;;;;;;;;;35.00;34.00;;;;;11.27;47.39;100411.16;6283681;20;2857778;-50
2022/03/27 01:57:22;;;;;;;;;36.67;32.00;;;;;11.25;47.69;100418.41;6314876;20;3608541;-48
2022/03/27 01:59:51;;;;;;;;;44.33;32.67;;;;;11.29;47.76;100422.66;6317881;20;3627313;-51
2022/03/27 02:02:23;;;;;;;;;36.33;32.00;;;;;11.50;47.32;100417.97;6287534;20;3618994;-50
2022/03/27 02:04:54;;;;;;;;;39.33;31.67;;;;;11.48;48.05;100416.31;6286626;20;3622131;-59
2022/03/27 02:07:23;;;;;;;;;40.33;33.67;;;;;11.60;47.35;100413.81;6317345;20;3624224;-58
2022/03/27 02:09:52;;;;;;;;;43.33;36.00;;;;;11.44;47.14;100415.63;6323443;20;3592973;-59
2022/03/27 02:12:21;;;;;;;;;36.00;33.00;;;;;11.48;47.62;100409.13;6283604;20;3610624;-58
2022/03/27 02:14:51;;;;;;;;;34.33;33.67;;;;;11.39;48.03;100409.59;6317744;20;3597126;-58
2022/03/27 02:17:21;;;;;;;;;33.33;33.33;;;;;11.37;48.41;100416.88;6314718;20;2853376;-58
2022/03/27 02:19:50;;;;;;;;;38.00;32.33;;;;;11.38;48.39;100422.19;6316446;20;3599186;-59
2022/03/27 02:22:19;;;;;;;;;35.67;30.67;;;;;11.41;48.57;100423.84;6317450;20;3598278;-58
2022/03/27 02:24:49;;;;;;;;;34.67;29.00;;;;;11.42;48.16;100429.13;6283969;20;3609031;-58
2022/03/27 02:27:19;;;;;;;;;45.67;37.00;;;;;11.25;48.96;100428.31;6315916;20;3622227;-58
2022/03/27 02:29:47;;;;;;;;;37.33;29.33;;;;;11.10;49.26;100433.50;6318003;20;3623169;-59
2022/03/27 02:32:17;;;;;;;;;40.67;31.00;;;;;11.34;48.69;100438.56;6283964;20;3631502;-58
2022/03/27 02:34:46;;;;;;;;;40.33;33.33;;;;;11.24;48.73;100448.06;6312459;20;3613800;-57
2022/03/27 02:37:16;;;;;;;;;35.33;27.67;;;;;11.05;49.18;100443.63;6314542;20;3591994;-57
2022/03/27 02:39:46;;;;;;;;;40.33;31.00;;;;;11.12;48.61;100445.06;6312653;20;3622107;-58
2022/03/27 02:42:16;;;;;;;;;38.33;31.33;;;;;11.07;48.70;100457.84;6316444;20;3615894;-58
2022/03/27 02:44:45;;;;;;;;;40.33;31.33;;;;;11.09;48.93;100464.03;6283163;20;3619126;-59
2022/03/27 02:47:15;;;;;;;;;40.33;35.67;;;;;10.78;49.89;100462.03;6313272;20;3622153;-58
2022/03/27 02:49:44;;;;;;;;;39.33;33.00;;;;;10.77;50.20;100469.22;6315021;20;3612863;-58
2022/03/27 02:52:13;;;;;;;;;39.67;29.67;;;;;10.51;50.44;100475.00;6315816;20;3630473;-58
2022/03/27 02:54:44;;;;;;;;;48.00;33.33;;;;;9.63;52.29;100480.84;6283704;20;2867456;-59
2022/03/27 02:57:15;;;;;;;;;37.33;32.00;;;;;9.06;54.71;100507.47;6316772;20;2850281;-59
2022/03/27 02:59:44;;;;;;;;;35.00;30.00;;;;;9.53;54.02;100511.69;6312381;20;2852409;-59
2022/03/27 03:02:13;;;;;;;;;46.00;38.00;;;;;9.58;53.74;100513.22;6284398;20;2843065;-58
2022/03/27 03:04:42;;;;;;;;;41.50;35.00;;;;;9.23;54.62;100512.09;6281509;20;2852525;-57
2022/03/27 03:07:14;;;;;;;;;38.00;30.67;;;;;9.41;54.27;100522.03;6284028;20;2853426;-58
2022/03/27 03:09:43;;;;;;;;;36.00;34.00;;;;;9.20;55.22;100525.63;6315691;20;3608589;-58
2022/03/27 03:12:13;;;;;;;;;33.33;32.67;;;;;9.01;56.10;100530.88;6282954;20;2862773;-57
2022/03/27 03:14:42;;;;;;;;;46.00;37.00;;;;;8.97;56.06;100532.81;6317673;20;3477314;-58
2022/03/27 03:17:12;;;;;;;;;41.67;35.00;;;;;9.21;56.23;100540.75;6311994;20;2869126;-58
2022/03/27 03:19:41;;;;;;;;;39.67;33.00;;;;;9.16;56.50;100550.78;6312612;20;2869193;-58
2022/03/27 03:22:11;;;;;;;;;35.50;34.00;;;;;9.01;57.26;100555.84;6314149;20;2848293;-58
2022/03/27 03:24:40;;;;;;;;;37.50;27.00;;;;;9.11;58.21;100559.03;6285015;20;2866940;-58
2022/03/27 03:27:15;;;;;;;;;31.00;24.33;;;;;9.23;58.78;100566.53;6280088;20;2857753;-57
2022/03/27 03:30:20;;;;;;;;;7.00;4.00;;;;;9.08;59.64;100579.72;6317643;20;2722131;-58
2022/03/27 03:33:30;;;;;;;;;29.50;22.50;;;;;9.09;60.59;100574.31;6314721;20;2494053;-58
2022/03/27 03:36:31;;;;;;;;;23.50;22.50;;;;;8.99;61.74;100565.75;6282398;20;2500249;-57
2022/03/27 03:39:23;;;;;;;;;29.00;23.50;;;;;8.94;61.96;100572.25;6283940;20;2845033;-59
2022/03/27 03:42:30;;;;;;;;;26.00;20.50;;;;;9.09;61.83;100581.47;6281058;20;2835713;-57
2022/03/27 03:45:28;;;;;;;;;32.00;28.00;;;;;8.97;62.16;100582.81;6281491;20;2496197;-58
2022/03/27 03:48:48;;;;;;;;;24.33;18.67;;;;;8.78;62.28;100583.56;6284902;20;3567086;-58
2022/03/27 03:51:36;;;;;;;;;19.50;19.00;;;;;8.85;62.38;100577.97;6287539;20;2826422;-58
2022/03/27 03:54:37;;;;;;;;;16.33;16.33;;;;;9.01;62.03;100579.97;6282778;20;3526289;-58
2022/03/27 03:57:35;;;;;;;;;28.00;21.00;;;;;8.68;62.80;100579.50;6280462;20;2500277;-55
2022/03/27 04:01:05;;;;;;;;;23.00;22.00;;;;;8.72;62.70;100577.59;6283391;20;2838169;-58
2022/03/27 04:03:58;;;;;;;;;24.00;22.00;;;;;8.60;63.29;100584.28;6284572;20;2844032;-57
2022/03/27 04:06:38;;;;;;;;;23.00;19.50;;;;;8.63;62.82;100599.34;6283272;20;2827335;-58
2022/03/27 04:09:39;;;;;;;;;20.50;16.50;;;;;8.47;62.90;100594.59;6285136;20;2500364;-58
2022/03/27 04:12:47;;;;;;;;;28.67;23.00;;;;;8.35;63.75;100600.41;6284575;20;3565874;-58
2022/03/27 04:15:38;;;;;;;;;23.67;20.67;;;;;8.55;63.51;100600.53;6281795;20;3559647;-58
2022/03/27 04:18:54;;;;;;;;;23.00;20.50;;;;;8.42;63.24;100612.63;6309050;20;2500424;-58
2022/03/27 04:25:41;;;;;;;;;20.67;19.00;;;;;8.40;63.20;100614.50;6284192;20;3560659;-58
2022/03/27 04:28:30;;;;;;;;;20.67;18.67;;;;;8.12;63.96;100618.16;6284608;20;3560791;-57
2022/03/27 04:31:35;;;;;;;;;21.00;19.00;;;;;8.08;63.92;100635.28;6284702;20;2828383;-59
2022/03/27 04:34:23;;;;;;;;;24.00;22.00;;;;;8.21;63.50;100629.44;6284429;20;2829520;-57
2022/03/27 04:37:25;;;;;;;;;28.00;21.00;;;;;8.45;62.58;100641.06;6282780;20;2500238;-57
2022/03/27 04:40:46;;;;;;;;;22.50;18.50;;;;;8.61;62.03;100646.72;6281597;20;2833643;-57
2022/03/27 04:47:38;;;;;;;;;23.00;22.00;;;;;8.26;62.77;100639.03;6281664;20;2500331;-57
2022/03/27 04:50:53;;;;;;;;;37.33;27.67;;;;;8.19;63.62;100642.91;6278643;20;2864950;-58
2022/03/27 04:54:32;;;;;;;;;48.50;38.50;;;;;8.46;62.64;100651.75;6312587;20;2850430;-58
2022/03/27 04:57:49;;;;;;;;;68.33;51.33;;;;;8.37;63.08;100662.72;6280225;20;3638790;-57
2022/03/27 05:00:49;;;;;;;;;52.50;41.00;;;;;8.44;62.92;100664.28;6308106;20;2864835;-58
2022/03/27 05:03:45;;;;;;;;;49.00;36.00;;;;;8.47;62.80;100665.97;6277428;20;2874426;-58
2022/03/27 05:06:50;;;;;;;;;30.50;26.50;;;;;8.98;61.08;100671.16;6312991;20;2851281;-59
2022/03/27 05:09:26;;;;;;;;;23.50;22.50;;;;;9.34;59.01;100667.94;6280959;20;2498166;-58
2022/03/27 05:12:56;;;;;;;;;23.50;21.00;;;;;10.07;57.54;100668.47;6276243;20;2500289;-57
2022/03/27 05:15:48;;;;;;;;;;;;;;;;;;;;;
2022/03/27 05:18:48;;;;;;;;;29.00;20.00;;;;;9.47;58.88;100667.44;6282791;20;2849194;-59
2022/03/27 05:22:17;;;;;;;;;20.50;20.00;;;;;8.78;61.98;100673.75;6284709;20;2824366;-59
2022/03/27 05:25:26;;;;;;;;;25.50;19.00;;;;;9.55;59.64;100671.53;6281587;20;2500344;-58
2022/03/27 05:28:25;;;;;;;;;30.50;23.50;;;;;9.51;58.63;100677.13;6282696;20;2854523;-58
2022/03/27 05:31:38;;;;;;;;;21.50;18.00;;;;;9.94;57.55;100680.66;6279010;20;2498277;-57
2022/03/27 05:34:26;;;;;;;;;23.50;18.00;;;;;9.77;58.07;100684.03;6281328;20;2500282;-59
2022/03/27 05:37:32;;;;;;;;;23.50;20.00;;;;;10.03;57.19;100683.81;6278246;20;2500229;-58
2022/03/27 05:40:50;;;;;;;;;21.00;19.67;;;;;10.20;56.86;100699.19;6278132;20;3573177;-59
2022/03/27 05:44:19;;;;;;;;;20.33;16.33;;;;;9.95;57.54;100695.81;6277112;20;3560737;-59
2022/03/27 05:47:17;;;;;;;;;23.33;18.33;;;;;10.27;57.13;100705.16;6280640;20;3560693;-59
2022/03/27 05:50:01;;;;;;;;;20.67;18.67;;;;;10.29;56.61;100709.56;6277877;20;3559592;-59
2022/03/27 05:53:33;;;;;;;;;27.50;23.50;;;;;9.94;58.13;100715.53;6311999;20;2850342;-58
2022/03/27 05:56:56;;;;;;;;;26.50;21.00;;;;;10.26;56.72;100728.44;6276407;20;2496083;-58
2022/03/27 06:00:20;;;;;;;;;27.00;20.00;;;;;11.14;54.73;100738.81;6280753;20;2840917;-57
2022/03/27 06:03:37;;;;;;;;;21.67;20.00;;;;;11.81;52.17;100747.25;6278855;20;3568976;-58
2022/03/27 06:06:48;;;;;;;;;25.00;20.00;;;;;11.41;53.50;100754.59;6311512;20;2846083;-59
2022/03/27 06:13:10;;;;;;;;;17.50;16.50;;;;;12.84;50.25;100759.00;6282331;20;2829477;-57
2022/03/27 06:16:15;;;;;;;;;22.50;18.00;;;;;12.46;50.80;100763.75;6281196;20;2842008;-58
2022/03/27 06:19:10;;;;;;;;;22.00;20.50;;;;;12.65;50.07;100758.25;6282944;20;2848239;-58
2022/03/27 06:22:32;;;;;;;;;17.00;16.50;;;;;13.20;48.65;100766.03;6282155;20;2817959;-60
2022/03/27 06:26:06;;;;;;;;;17.00;17.00;;;;;14.88;45.15;100771.56;6282545;20;2496069;-61
2022/03/27 06:29:27;;;;;;;;;16.50;16.50;;;;;15.36;43.44;100782.09;6312623;20;2494089;-61
2022/03/27 06:32:26;;;;;;;;;14.50;13.00;;;;;15.84;42.03;100793.44;6285704;20;2798162;-57
2022/03/27 06:38:45;;;;;;;;;18.33;16.67;;;;;13.48;47.31;100792.41;6278699;20;3560681;-56
2022/03/27 06:41:44;;;;;;;;;18.00;16.33;;;;;13.49;48.07;100790.56;6286274;20;3551342;-55
2022/03/27 06:44:32;;;;;;;;;25.00;22.00;;;;;12.75;49.67;100797.22;6285840;20;2833610;-55
2022/03/27 06:47:36;;;;;;;;;23.50;19.00;;;;;13.50;48.15;100803.09;6282566;20;2496119;-54
2022/03/27 06:50:32;;;;;;;;;19.50;18.50;;;;;12.90;49.20;100807.22;6282388;20;2491949;-57
2022/03/27 06:53:49;;;;;;;;;21.00;20.50;;;;;12.31;50.58;100800.41;6285360;20;2839887;-58
2022/03/27 06:56:27;;;;;;;;;22.00;20.00;;;;;12.70;50.32;100807.38;6287558;20;2838133;-57
2022/03/27 07:03:36;;;;;;;;;20.33;20.33;;;;;12.34;51.09;100813.72;6284877;20;3573356;-56
2022/03/27 07:07:00;;;;;;;;;20.00;15.50;;;;;12.23;51.62;100821.47;6281860;20;2500288;-54
2022/03/27 07:10:13;;;;;;;;;21.50;20.00;;;;;12.15;52.29;100829.06;6281740;20;2500462;-57
2022/03/27 07:13:41;;;;;;;;;18.00;16.00;;;;;12.41;51.49;100834.00;6284814;20;2825621;-58
2022/03/27 07:16:50;;;;;;;;;27.50;21.50;;;;;12.03;51.90;100842.19;6282563;20;2838837;-57
2022/03/27 07:20:23;;;;;;;;;31.00;26.00;;;;;11.93;52.72;100845.38;6281410;20;2854483;-54
2022/03/27 07:23:22;;;;;;;;;25.00;21.00;;;;;11.94;51.96;100848.00;6284519;20;2844078;-57
2022/03/27 07:26:43;;;;;;;;;;;;;;;;;;;;;
2022/03/27 07:29:41;;;;;;;;;21.00;18.00;;;;;12.35;50.76;100855.88;6281580;20;2713884;-57
2022/03/27 07:32:22;;;;;;;;;30.50;25.00;;;;;12.17;51.28;100859.47;6314350;20;2852386;-56
2022/03/27 07:36:13;;;;;;;;;;;;;;;;;;;;;
2022/03/27 07:40:07;;;;;;;;;;;;;;;;;;;;;
2022/03/27 07:43:52;;;;;;;;;23.50;20.50;;;;;13.10;47.96;100857.34;6286478;20;2843131;-55
2022/03/27 07:51:27;;;;;;;;;21.33;19.33;;;;;13.38;47.89;100861.31;6282769;20;3558572;-53
2022/03/27 07:54:49;;;;;;;;;20.50;20.50;;;;;13.42;47.15;100864.69;6284338;20;2839857;-56
2022/03/27 07:58:10;;;;;;;;;23.00;22.50;;;;;14.07;45.83;100860.16;6096458;20;2831529;-57
2022/03/27 08:01:18;;;;;;;;;22.50;16.50;;;;;14.07;46.38;100864.69;6288396;20;2835707;-58
2022/03/27 08:05:01;;;;;;;;;20.50;19.00;;;;;14.03;45.66;100858.56;6286053;20;2842023;-57
2022/03/27 08:08:35;;;;;;;;;19.00;17.00;;;;;14.35;44.64;100863.94;6286065;20;2829490;-56
2022/03/27 08:11:48;;;;;;;;;21.00;19.50;;;;;14.11;44.49;100867.09;6287008;20;2494091;-58
2022/03/27 08:14:51;;;;;;;;;18.00;17.00;;;;;14.30;44.82;100860.63;6288497;20;2833554;-54
2022/03/27 08:21:58;;;;;;;;;22.00;20.33;;;;;15.59;42.63;100859.97;6288427;20;3577325;-57
2022/03/27 08:29:43;;;;;;;;;17.00;17.00;;;;;15.33;41.62;100874.28;6285132;20;2498301;-53
2022/03/27 08:33:09;;;;;;;;;18.67;18.00;;;;;15.23;41.63;100875.81;6285361;20;3575281;-57
2022/03/27 08:36:41;;;;;;;;;21.00;15.00;;;;;15.10;41.55;100871.16;6281575;20;2500331;-58
2022/03/27 08:40:37;;;;;;;;;16.00;14.50;;;;;15.26;41.32;100872.91;6281680;20;2500682;-55
2022/03/27 08:44:34;;;;;;;;;;;;;;;;;;;;;
2022/03/27 08:47:51;;;;;;;;;12.67;12.67;;;;;15.99;39.96;100862.00;6283482;20;3540845;-58
2022/03/27 08:51:57;;;;;;;;;17.00;17.00;;;;;16.34;39.63;100864.19;6283916;20;2827355;-57
2022/03/27 08:55:53;;;;;;;;;;;;;;;;;;;;;
2022/03/27 08:59:58;;;;;;;;;19.00;17.00;;;;;16.37;39.32;100872.13;6277137;20;2496087;-57
2022/03/27 09:03:31;;;;;;;;;;;;;;;;;;;;;
2022/03/27 09:06:59;;;;;;;;;22.00;18.50;;;;;16.39;39.15;100870.19;6311392;20;2825281;-60
2022/03/27 09:10:53;;;;;;;;;18.00;17.00;;;;;15.57;41.19;100864.63;6277250;20;2835700;-58
2022/03/27 09:14:07;;;;;;;;;21.50;18.00;;;;;16.07;40.17;100872.31;6282378;20;2837824;-56
2022/03/27 09:17:23;;;;;;;;;15.33;14.00;;;;;16.21;39.46;100866.84;6282836;20;3531682;-57
2022/03/27 09:21:00;;;;;;;;;18.00;18.00;;;;;16.63;39.16;100878.50;6279720;20;2832037;-57
2022/03/27 09:24:48;;;;;;;;;23.00;17.50;;;;;16.70;38.47;100873.53;6280444;20;2489863;-57
2022/03/27 09:33:14;;;;;;;;;21.00;19.00;;;;;16.19;40.48;100871.50;6283703;20;2835667;-55
2022/03/27 09:36:40;;;;;;;;;17.00;16.50;;;;;16.46;39.57;100872.38;6283698;20;2831581;-57
2022/03/27 09:40:39;;;;;;;;;21.00;16.67;;;;;17.16;38.66;100870.38;6279492;20;3583694;-57
2022/03/27 09:44:05;;;;;;;;;17.00;16.00;;;;;17.20;37.94;100864.63;6282166;20;2817045;-54
2022/03/27 09:47:39;;;;;;;;;21.33;17.00;;;;;17.40;37.34;100871.34;6283901;20;3563760;-58
2022/03/27 09:51:58;;;;;;;;;18.50;17.50;;;;;16.88;38.31;100870.47;6282536;20;2485619;-58
2022/03/27 09:55:47;;;;;;;;;14.67;14.00;;;;;17.86;37.37;100880.81;6280484;20;3533551;-55
2022/03/27 09:59:45;;;;;;;;;18.00;16.50;;;;;17.38;37.70;100870.63;6278198;20;2500256;-58
2022/03/27 10:03:19;;;;;;;;;19.00;16.67;;;;;17.58;37.61;100876.47;6280910;20;3564826;-57
2022/03/27 10:07:02;;;;;;;;;21.00;19.00;;;;;16.21;38.39;100878.56;6279116;20;2844029;-57
2022/03/27 10:10:21;;;;;;;;;19.00;19.00;;;;;17.27;37.71;100882.25;6282904;20;2826296;-58
2022/03/27 10:14:04;;;;;;;;;19.50;18.50;;;;;17.63;37.43;100890.56;6282254;20;2837925;-58
2022/03/27 10:18:08;;;;;;;;;23.00;18.00;;;;;17.92;36.08;100883.06;6284670;20;2492027;-58
2022/03/27 10:21:37;;;;;;;;;15.00;15.00;;;;;17.74;37.25;100896.97;6282505;20;2808637;-58
2022/03/27 10:24:57;;;;;;;;;20.50;19.00;;;;;18.35;35.86;100888.91;6282450;20;2483737;-58
2022/03/27 10:28:15;;;;;;;;;21.00;18.00;;;;;17.72;36.85;100889.91;6285803;20;2492042;-58
2022/03/27 10:31:49;;;;;;;;;17.33;14.00;;;;;17.76;36.60;100892.28;6287515;20;3541904;-57
2022/03/27 10:35:48;;;;;;;;;16.00;15.00;;;;;17.75;36.40;100892.41;6285550;20;3534577;-56
2022/03/27 10:44:29;;;;;;;;;15.00;14.00;;;;;16.70;37.51;100884.41;6287008;20;2496094;-59
2022/03/27 10:52:54;;;;;;;;;20.00;17.00;;;;;17.65;36.04;100878.63;6287477;20;2496084;-58
2022/03/27 10:56:16;;;;;;;;;21.50;18.50;;;;;17.84;36.69;100871.88;6288185;20;2835693;-58
2022/03/27 11:00:10;;;;;;;;;20.33;17.33;;;;;16.90;37.49;100870.34;6286885;20;3569048;-57
2022/03/27 11:04:24;;;;;;;;;18.00;16.67;;;;;16.74;37.63;100870.50;6287547;20;2833649;-58
2022/03/27 11:08:07;;;;;;;;;15.67;15.33;;;;;17.69;36.09;100860.25;6320092;20;3533629;-58
2022/03/27 11:12:41;;;;;;;;;13.00;12.00;;;;;17.45;36.96;100865.59;6321175;20;2802482;-58
2022/03/27 11:20:29;;;;;;;;;16.50;14.50;;;;;17.24;36.96;100851.72;6283309;20;2489990;-56
2022/03/27 11:24:15;;;;;;;;;16.00;16.00;;;;;17.60;37.39;100848.22;6283579;20;2494124;-58
2022/03/27 11:28:11;;;;;;;;;18.50;15.00;;;;;18.41;35.74;100846.78;6282149;20;2492029;-58
2022/03/27 11:31:28;;;;;;;;;21.00;18.00;;;;;17.60;36.42;100850.06;6284531;20;2841940;-57
2022/03/27 11:34:17;;;;;;;;;16.50;16.50;;;;;17.85;36.39;100846.44;6283897;20;2492071;-57
2022/03/27 11:37:25;;;;;;;;;16.67;15.67;;;;;17.02;36.85;100847.78;6286672;20;2829579;-58
2022/03/27 11:40:40;;;;;;;;;18.00;17.00;;;;;17.69;35.32;100841.22;6311835;20;2831540;-57
2022/03/27 11:43:33;;;;;;;;;16.67;14.67;;;;;18.16;35.16;100839.59;6283711;20;3556524;-58
2022/03/27 11:46:25;;;;;;;;;30.33;28.67;;;;;17.92;35.32;100837.72;6281780;20;2855455;-58
2022/03/27 11:49:14;;;;;;;;;22.00;18.00;;;;;18.21;35.69;100832.84;6310139;20;2483709;-57
2022/03/27 11:52:19;;;;;;;;;19.33;15.33;;;;;18.80;34.99;100834.75;6283069;20;3560774;-58
2022/03/27 11:55:13;;;;;;;;;18.00;16.00;;;;;17.77;36.10;100822.53;6284159;20;2833606;-58
2022/03/27 11:58:03;;;;;;;;;18.33;16.33;;;;;18.07;35.33;100830.31;6286746;20;2837754;-59
2022/03/27 12:00:44;;;;;;;;;19.67;14.33;;;;;17.49;35.91;100829.13;6319437;20;3550225;-59
2022/03/27 12:03:16;;;;;;;;;18.00;17.00;;;;;17.63;35.99;100831.69;6316060;20;2830446;-58
2022/03/27 12:05:45;;;;;;;;;16.67;15.33;;;;;17.53;34.97;100825.19;6282173;20;3548191;-58
2022/03/27 12:08:17;;;;;;;;;18.50;18.00;;;;;18.01;35.25;100836.19;6284615;20;2487905;-58
2022/03/27 12:10:56;;;;;;;;;17.00;14.00;;;;;17.45;34.73;100822.16;6284622;20;2496210;-59
2022/03/27 12:13:25;;;;;;;;;25.33;23.00;;;;;17.33;35.69;100823.94;6286359;20;3587761;-58
2022/03/27 12:15:55;;;;;;;;;19.00;19.00;;;;;17.59;35.91;100815.72;6282729;20;2835685;-58
2022/03/27 12:18:40;;;;;;;;;18.00;18.00;;;;;17.74;35.26;100812.75;6284996;20;2835667;-58
2022/03/27 12:21:12;;;;;;;;;18.00;15.00;;;;;17.49;35.57;100807.41;6286247;20;3538904;-58
2022/03/27 12:23:55;;;;;;;;;21.67;20.00;;;;;18.03;35.01;100806.19;6321371;20;3576258;-58
2022/03/27 12:32:25;;;;;;;;;20.00;19.00;;;;;17.94;35.24;100800.44;6286657;20;2834623;-59
2022/03/27 12:35:01;;;;;;;;;16.00;16.00;;;;;18.15;34.33;100795.25;6286416;20;2831529;-57
2022/03/27 12:37:32;;;;;;;;;24.00;19.00;;;;;17.98;35.46;100787.50;6284433;20;2839847;-58
2022/03/27 12:40:07;;;;;;;;;9.43;6.71;;;;;17.28;36.17;100788.97;6329988;20;3488933;-58
2022/03/27 12:42:46;;;;;;;;;19.00;15.00;;;;;17.47;35.45;100783.06;6317416;20;2819104;-57
2022/03/27 12:45:32;;;;;;;;;33.67;26.67;;;;;17.07;36.90;100769.66;6284205;20;3616199;-58
2022/03/27 12:48:18;;;;;;;;;21.00;19.00;;;;;17.55;35.55;100774.34;6316125;20;2498166;-58
2022/03/27 12:50:53;;;;;;;;;15.50;15.50;;;;;17.90;35.56;100770.91;6287708;20;2487807;-58
2022/03/27 12:53:27;;;;;;;;;15.00;14.00;;;;;18.24;35.16;100768.34;6287761;20;2797268;-57
2022/03/27 12:56:09;;;;;;;;;18.00;15.67;;;;;18.56;34.33;100766.75;6282149;20;2496081;-57
2022/03/27 12:58:42;;;;;;;;;21.00;19.00;;;;;18.25;34.93;100756.50;6316956;20;2839901;-58
2022/03/27 13:01:23;;;;;;;;;18.00;16.50;;;;;17.86;34.57;100762.13;6286443;20;2837750;-58
2022/03/27 13:04:18;;;;;;;;;18.67;15.00;;;;;18.17;34.51;100755.22;6288433;20;2821524;-58
2022/03/27 13:06:58;;;;;;;;;20.00;18.00;;;;;18.64;34.17;100758.84;6310052;20;2479475;-58
2022/03/27 13:09:27;;;;;;;;;17.00;17.00;;;;;18.10;34.44;100750.38;6283680;20;2483610;-50
2022/03/27 13:11:55;;;;;;;;;16.00;15.00;;;;;18.15;34.65;100751.75;6286458;20;2491932;-47
2022/03/27 13:14:23;;;;;;;;;19.00;16.00;;;;;18.16;34.66;100748.03;6282969;20;2491899;-48
2022/03/27 13:16:58;;;;;;;;;18.00;17.00;;;;;17.94;34.58;100747.97;6282050;20;2489820;-48
2022/03/27 13:19:45;;;;;;;;;16.67;15.67;;;;;18.36;34.58;100738.38;6284576;20;3550494;-51
2022/03/27 13:22:14;;;;;;;;;18.50;18.50;;;;;18.77;34.04;100738.84;6282816;20;2841937;-49
2022/03/27 13:24:42;;;;;;;;;17.00;15.00;;;;;18.23;33.70;100742.16;6284915;20;2500253;-49
2022/03/27 13:27:11;;;;;;;;;18.50;17.50;;;;;18.23;34.79;100743.03;6281143;20;2835688;-48
2022/03/27 13:29:40;;;;;;;;;20.00;16.67;;;;;18.40;34.69;100734.44;6285972;20;3573181;-52
2022/03/27 13:32:09;;;;;;;;;20.00;18.50;;;;;17.74;35.29;100733.97;6284496;20;2842081;-52
2022/03/27 13:34:38;;;;;;;;;16.50;16.50;;;;;17.87;35.52;100735.81;6286168;20;2828432;-51
2022/03/27 13:37:06;;;;;;;;;18.00;16.67;;;;;17.67;34.79;100732.72;6285581;20;3559114;-49
2022/03/27 13:39:35;;;;;;;;;18.00;17.00;;;;;18.02;34.49;100725.63;6283418;20;2834626;-49
2022/03/27 13:44:52;;;;;;;;;20.00;18.50;;;;;18.33;34.00;100725.03;6285442;20;2825241;-48
2022/03/27 13:47:21;;;;;;;;;16.50;15.50;;;;;18.53;34.46;100723.44;6282902;20;2487824;-50
2022/03/27 13:49:50;;;;;;;;;18.50;18.50;;;;;17.23;35.08;100717.84;6282239;20;2835677;-47
2022/03/27 13:52:18;;;;;;;;;14.00;14.00;;;;;17.28;35.71;100718.38;6288259;20;2807667;-49
2022/03/27 13:54:46;;;;;;;;;17.50;17.50;;;;;17.33;35.64;100705.34;6284587;20;2828542;-48
2022/03/27 13:57:15;;;;;;;;;19.00;19.00;;;;;17.57;34.48;100703.66;6283696;20;2832759;-47
2022/03/27 13:59:44;;;;;;;;;16.33;15.33;;;;;17.82;34.86;100699.97;6278873;20;3556556;-48
2022/03/27 14:02:12;;;;;;;;;16.00;15.50;;;;;18.21;34.33;100699.63;6282083;20;2811739;-50
2022/03/27 14:04:41;;;;;;;;;14.33;14.00;;;;;17.72;34.47;100700.66;6279668;20;3528368;-50
2022/03/27 14:07:10;;;;;;;;;15.50;14.00;;;;;18.22;34.44;100692.38;6280916;20;2804417;-50
2022/03/27 14:09:43;;;;;;;;;22.00;20.00;;;;;18.23;34.34;100693.22;6278952;20;2841106;-48
2022/03/27 14:12:11;;;;;;;;;17.00;17.00;;;;;17.98;34.79;100693.28;6314245;20;2823149;-47
2022/03/27 14:14:39;;;;;;;;;20.50;18.50;;;;;17.91;34.68;100688.41;6282209;20;2496087;-49